createdAt,value
2023-03-16T00:02:07.248Z,1.48
2023-03-16T00:04:37.584Z,1.77
2023-03-16T00:07:08.552Z,1.42
2023-03-16T00:09:41.180Z,2.20
2023-03-16T00:12:15.687Z,2.25
2023-03-16T00:14:45.092Z,2.13
2023-03-16T00:17:19.020Z,3.20
2023-03-16T00:19:48.513Z,3.30
2023-03-16T00:22:18.133Z,2.75
2023-03-16T00:24:46.143Z,2.75
2023-03-16T00:27:15.626Z,2.40
2023-03-16T00:29:47.461Z,3.38
2023-03-16T00:32:17.517Z,2.33
2023-03-16T00:34:46.374Z,2.70
2023-03-16T00:37:18.295Z,2.40
2023-03-16T00:39:47.890Z,2.67
2023-03-16T00:42:17.991Z,2.70
2023-03-16T00:44:46.207Z,2.40
2023-03-16T00:47:15.352Z,2.60
2023-03-16T00:49:45.550Z,1.40
2023-03-16T00:52:15.117Z,1.85
2023-03-16T00:54:46.208Z,1.50
2023-03-16T00:57:16.473Z,1.58
2023-03-16T00:59:44.593Z,1.77
2023-03-16T01:02:13.660Z,1.60
2023-03-16T01:04:42.602Z,1.42
2023-03-16T01:07:12.914Z,2.15
2023-03-16T01:09:41.422Z,1.73
2023-03-16T01:12:13.237Z,1.95
2023-03-16T01:14:41.840Z,1.90
2023-03-16T01:17:11.146Z,1.60
2023-03-16T01:19:39.475Z,1.73
2023-03-16T01:22:09.749Z,1.23
2023-03-16T01:24:41.861Z,1.75
2023-03-16T01:27:11.382Z,1.73
2023-03-16T01:29:40.363Z,2.17
2023-03-16T01:32:08.849Z,1.67
2023-03-16T01:34:37.141Z,2.45
2023-03-16T01:37:06.572Z,1.45
2023-03-16T01:39:41.891Z,1.77
2023-03-16T01:42:12.305Z,2.20
2023-03-16T01:44:55.904Z,1.75
2023-03-16T01:47:28.095Z,2.03
2023-03-16T01:49:57.747Z,1.25
2023-03-16T01:52:33.358Z,1.50
2023-03-16T01:55:05.742Z,2.00
2023-03-16T01:57:39.242Z,1.20
2023-03-16T02:00:10.829Z,1.20
2023-03-16T02:02:54.844Z,1.35
2023-03-16T02:05:34.476Z,1.25
2023-03-16T02:08:05.152Z,1.42
2023-03-16T02:10:34.516Z,1.05
2023-03-16T02:13:04.357Z,1.63
2023-03-16T02:15:32.875Z,1.48
2023-03-16T02:18:01.550Z,1.52
2023-03-16T02:20:37.661Z,1.60
2023-03-16T02:23:06.856Z,1.40
2023-03-16T02:25:43.738Z,2.13
2023-03-16T02:28:20.311Z,1.63
2023-03-16T02:30:51.416Z,1.60
2023-03-16T02:33:21.334Z,1.45
2023-03-16T02:35:49.435Z,1.13
2023-03-16T02:38:17.480Z,1.40
2023-03-16T02:41:00.722Z,1.40
2023-03-16T02:43:34.148Z,1.38
2023-03-16T02:46:16.046Z,1.15
2023-03-16T02:48:47.756Z,1.40
2023-03-16T02:51:16.128Z,1.73
2023-03-16T02:53:44.212Z,1.60
2023-03-16T02:56:12.462Z,1.40
2023-03-16T02:58:41.045Z,1.00
2023-03-16T03:01:15.311Z,1.38
2023-03-16T03:03:43.777Z,1.30
2023-03-16T03:06:12.190Z,1.75
2023-03-16T03:08:41.251Z,1.35
2023-03-16T03:11:09.428Z,1.00
2023-03-16T03:13:39.236Z,1.58
2023-03-16T03:16:12.097Z,1.60
2023-03-16T03:18:42.096Z,1.08
2023-03-16T03:21:10.161Z,1.40
2023-03-16T03:23:38.279Z,1.80
2023-03-16T03:26:09.183Z,1.67
2023-03-16T03:28:37.294Z,1.10
2023-03-16T03:31:05.481Z,1.00
2023-03-16T03:33:33.827Z,1.52
2023-03-16T03:36:03.355Z,0.95
2023-03-16T03:38:36.276Z,1.10
2023-03-16T03:41:07.351Z,1.55
2023-03-16T03:43:38.005Z,1.00
2023-03-16T03:46:07.606Z,1.23
2023-03-16T03:48:36.180Z,1.38
2023-03-16T03:51:06.745Z,1.42
2023-03-16T03:53:47.175Z,2.35
2023-03-16T03:56:20.587Z,1.50
2023-03-16T03:58:48.600Z,1.65
2023-03-16T04:01:25.101Z,1.60
2023-03-16T04:03:53.154Z,1.85
2023-03-16T04:06:22.792Z,1.60
2023-03-16T04:08:51.097Z,2.28
2023-03-16T04:11:22.354Z,2.58
2023-03-16T04:13:53.400Z,2.83
2023-03-16T04:16:22.239Z,1.85
2023-03-16T04:18:54.340Z,1.60
2023-03-16T04:21:25.552Z,1.58
2023-03-16T04:23:54.457Z,1.88
2023-03-16T04:26:26.801Z,1.48
2023-03-16T04:28:55.308Z,1.63
2023-03-16T04:31:23.824Z,1.77
2023-03-16T04:33:54.653Z,1.35
2023-03-16T04:36:25.324Z,2.13
2023-03-16T04:38:54.962Z,1.70
2023-03-16T04:41:24.219Z,1.27
2023-03-16T04:44:02.997Z,1.63
2023-03-16T04:46:31.050Z,2.17
2023-03-16T04:49:02.588Z,1.10
2023-03-16T04:51:32.347Z,1.98
2023-03-16T04:54:08.540Z,1.77
2023-03-16T04:56:41.569Z,1.30
2023-03-16T04:59:17.964Z,1.17
2023-03-16T05:01:51.677Z,1.00
2023-03-16T05:04:22.030Z,2.13
2023-03-16T05:06:51.639Z,1.80
2023-03-16T05:09:23.723Z,1.45
2023-03-16T05:11:51.795Z,1.20
2023-03-16T05:14:20.196Z,1.63
2023-03-16T05:16:59.349Z,1.02
2023-03-16T05:19:27.502Z,1.38
2023-03-16T05:21:57.312Z,1.20
2023-03-16T05:24:25.370Z,1.50
2023-03-16T05:26:53.370Z,1.80
2023-03-16T05:29:23.176Z,1.10
2023-03-16T05:31:51.329Z,2.10
2023-03-16T05:34:22.774Z,1.45
2023-03-16T05:36:51.763Z,1.48
2023-03-16T05:39:24.262Z,2.17
2023-03-16T05:41:52.310Z,1.13
2023-03-16T05:44:31.577Z,1.40
2023-03-16T05:47:18.212Z,1.45
2023-03-16T05:49:51.474Z,1.08
2023-03-16T05:52:39.408Z,1.58
2023-03-16T05:55:19.340Z,1.77
2023-03-16T05:57:53.071Z,1.50
2023-03-16T06:00:22.798Z,0.95
2023-03-16T06:03:01.499Z,1.10
2023-03-16T06:05:34.228Z,1.20
2023-03-16T06:08:03.586Z,0.70
2023-03-16T06:10:34.009Z,1.25
2023-03-16T06:13:02.122Z,0.45
2023-03-16T06:15:30.724Z,0.73
2023-03-16T06:18:01.293Z,0.55
2023-03-16T06:20:30.361Z,0.73
2023-03-16T06:22:58.696Z,0.65
2023-03-16T06:25:26.882Z,0.80
2023-03-16T06:27:56.978Z,0.77
2023-03-16T06:30:26.942Z,0.50
2023-03-16T06:32:55.371Z,0.70
2023-03-16T06:35:23.645Z,0.60
2023-03-16T06:38:06.443Z,0.70
2023-03-16T06:40:45.115Z,0.90
2023-03-16T06:43:14.420Z,0.80
2023-03-16T06:45:45.652Z,1.10
2023-03-16T06:48:14.365Z,0.87
2023-03-16T06:50:42.489Z,1.07
2023-03-16T06:53:10.488Z,0.73
2023-03-16T06:55:39.466Z,0.80
2023-03-16T06:58:07.648Z,0.80
2023-03-16T07:00:37.087Z,1.17
2023-03-16T07:03:05.459Z,1.80
2023-03-16T07:05:34.796Z,5.23
2023-03-16T07:08:04.322Z,3.67
2023-03-16T07:10:32.846Z,2.57
2023-03-16T07:13:01.447Z,2.70
2023-03-16T07:20:10.661Z,1.87
2023-03-16T07:22:40.423Z,1.50
2023-03-16T07:25:11.626Z,1.90
2023-03-16T07:27:45.517Z,1.50
2023-03-16T07:30:15.245Z,1.77
2023-03-16T07:32:46.571Z,1.50
2023-03-16T07:35:17.265Z,2.40
2023-03-16T07:37:46.575Z,1.73
2023-03-16T07:40:15.698Z,1.50
2023-03-16T07:42:44.534Z,1.53
2023-03-16T07:45:17.998Z,1.70
2023-03-16T07:47:46.947Z,1.87
2023-03-16T07:50:26.830Z,1.40
2023-03-16T07:52:55.435Z,1.20
2023-03-16T07:55:23.834Z,1.80
2023-03-16T07:57:52.799Z,2.20
2023-03-16T08:00:28.702Z,1.30
2023-03-16T08:02:57.592Z,1.80
2023-03-16T08:05:27.991Z,1.77
2023-03-16T08:08:01.191Z,1.77
2023-03-16T08:10:31.481Z,2.30
2023-03-16T08:13:05.680Z,1.80
2023-03-16T08:15:35.053Z,1.30
2023-03-16T08:18:10.654Z,4.00
2023-03-16T08:20:40.054Z,3.60
2023-03-16T08:23:09.841Z,2.40
2023-03-16T08:25:41.627Z,2.37
2023-03-16T08:28:17.043Z,1.60
2023-03-16T08:30:46.962Z,3.20
2023-03-16T08:33:41.583Z,3.63
2023-03-16T08:36:15.353Z,3.87
2023-03-16T08:39:03.810Z,4.83
2023-03-16T08:41:34.818Z,3.40
2023-03-16T08:44:07.813Z,2.23
2023-03-16T08:46:36.231Z,1.70
2023-03-16T08:49:04.686Z,2.00
2023-03-16T08:51:34.586Z,1.50
2023-03-16T08:54:02.637Z,1.50
2023-03-16T08:56:30.713Z,3.57
2023-03-16T08:58:58.753Z,1.07
2023-03-16T09:01:27.633Z,1.70
2023-03-16T09:03:55.769Z,0.90
2023-03-16T09:06:24.389Z,1.10
2023-03-16T09:08:54.036Z,1.03
2023-03-16T09:11:23.159Z,1.30
2023-03-16T09:13:52.909Z,0.90
2023-03-16T09:16:25.523Z,0.57
2023-03-16T09:18:54.087Z,0.87
2023-03-16T09:21:22.264Z,1.17
2023-03-16T09:23:50.876Z,0.60
2023-03-16T09:26:20.963Z,0.67
2023-03-16T09:28:49.281Z,0.50
2023-03-16T09:31:19.864Z,0.77
2023-03-16T09:33:48.689Z,0.90
2023-03-16T09:36:17.594Z,1.00
2023-03-16T09:38:45.672Z,1.83
2023-03-16T09:41:32.211Z,1.13
2023-03-16T09:44:10.731Z,0.93
2023-03-16T09:46:43.567Z,1.17
2023-03-16T09:49:12.505Z,0.80
2023-03-16T09:51:49.731Z,0.43
2023-03-16T09:54:25.750Z,1.50
2023-03-16T09:56:56.765Z,0.70
2023-03-16T09:59:27.335Z,0.87
2023-03-16T10:02:06.762Z,0.70
2023-03-16T10:04:45.166Z,1.23
2023-03-16T10:07:22.788Z,1.70
2023-03-16T10:09:58.295Z,1.47
2023-03-16T10:12:35.151Z,1.47
2023-03-16T10:15:07.607Z,1.47
2023-03-16T10:17:41.959Z,1.50
2023-03-16T10:20:17.462Z,2.40
2023-03-16T10:22:47.166Z,1.70
2023-03-16T10:25:23.747Z,2.33
2023-03-16T10:27:54.124Z,2.67
2023-03-16T10:30:25.874Z,2.17
2023-03-16T10:32:54.086Z,1.00
2023-03-16T10:35:31.477Z,1.20
2023-03-16T10:38:00.060Z,1.40
2023-03-16T10:40:32.706Z,1.50
2023-03-16T10:43:09.344Z,1.57
2023-03-16T10:45:38.144Z,2.77
2023-03-16T10:48:14.081Z,1.03
2023-03-16T10:50:44.284Z,0.90
2023-03-16T10:53:20.663Z,1.30
2023-03-16T10:55:50.337Z,1.57
2023-03-16T10:58:29.655Z,2.53
2023-03-16T11:00:59.018Z,1.60
2023-03-16T11:03:31.700Z,1.20
2023-03-16T11:06:02.420Z,1.50
2023-03-16T11:08:34.947Z,1.27
2023-03-16T11:11:11.862Z,1.07
2023-03-16T11:13:45.857Z,1.07
2023-03-16T11:16:25.922Z,1.33
2023-03-16T11:18:57.537Z,0.50
2023-03-16T11:21:38.720Z,0.83
2023-03-16T11:24:12.122Z,1.50
2023-03-16T11:26:42.945Z,1.00
2023-03-16T11:29:20.356Z,1.70
2023-03-16T11:31:53.379Z,1.80
2023-03-16T11:34:28.284Z,1.53
2023-03-16T11:36:59.901Z,1.30
2023-03-16T11:39:45.225Z,0.73
2023-03-16T11:42:31.025Z,0.90
2023-03-16T11:45:10.046Z,1.50
2023-03-16T11:48:10.955Z,1.50
2023-03-16T11:50:48.142Z,2.00
2023-03-16T11:53:27.421Z,1.20
2023-03-16T11:56:06.622Z,1.80
2023-03-16T11:58:51.942Z,2.17
2023-03-16T12:01:30.311Z,1.40
2023-03-16T12:04:23.541Z,2.07
2023-03-16T12:07:15.313Z,2.60
2023-03-16T12:10:02.225Z,2.90
2023-03-16T12:12:38.854Z,1.73
2023-03-16T12:15:24.281Z,1.67
2023-03-16T12:17:58.535Z,1.67
2023-03-16T12:20:32.068Z,1.90
2023-03-16T12:23:07.782Z,2.20
2023-03-16T12:25:40.021Z,3.37
2023-03-16T12:28:16.047Z,3.03
2023-03-16T12:30:50.535Z,1.67
2023-03-16T12:33:34.330Z,2.10
2023-03-16T12:36:09.688Z,1.80
2023-03-16T12:38:50.156Z,2.50
2023-03-16T12:41:28.177Z,1.90
2023-03-16T12:44:08.300Z,2.37
2023-03-16T12:46:43.454Z,1.70
2023-03-16T12:49:14.132Z,1.80
2023-03-16T12:51:43.847Z,2.30
2023-03-16T12:54:21.285Z,1.90
2023-03-16T12:56:51.674Z,2.30
2023-03-16T12:59:22.013Z,1.63
2023-03-16T13:01:53.502Z,1.17
2023-03-16T13:04:33.755Z,1.23
2023-03-16T13:07:06.048Z,1.50
2023-03-16T13:09:42.108Z,2.10
2023-03-16T13:12:10.562Z,1.23
2023-03-16T13:14:41.802Z,1.07
2023-03-16T13:17:25.615Z,1.27
2023-03-16T13:20:10.262Z,1.47
2023-03-16T13:22:47.349Z,1.20
2023-03-16T13:25:22.159Z,1.40
2023-03-16T13:27:53.231Z,1.37
2023-03-16T13:30:23.559Z,1.40
2023-03-16T13:32:55.572Z,1.93
2023-03-16T13:35:28.285Z,1.17
2023-03-16T13:38:05.654Z,1.80
2023-03-16T13:40:34.924Z,0.97
2023-03-16T13:43:03.457Z,1.03
2023-03-16T13:45:35.272Z,1.17
2023-03-16T13:48:03.498Z,0.90
2023-03-16T13:50:35.952Z,0.83
2023-03-16T13:53:11.803Z,0.60
2023-03-16T13:55:41.683Z,0.93
2023-03-16T13:58:22.804Z,1.43
2023-03-16T14:00:51.076Z,0.83
2023-03-16T14:03:22.357Z,0.63
2023-03-16T14:05:51.955Z,0.63
2023-03-16T14:08:22.581Z,1.10
2023-03-16T14:10:52.120Z,0.97
2023-03-16T14:13:36.098Z,0.77
2023-03-16T14:16:09.334Z,1.17
2023-03-16T14:18:40.720Z,0.40
2023-03-16T14:21:16.426Z,0.70
2023-03-16T14:23:46.428Z,0.70
2023-03-16T14:26:16.443Z,0.57
2023-03-16T14:28:57.321Z,0.63
2023-03-16T14:31:34.334Z,0.90
2023-03-16T14:34:04.946Z,0.93
2023-03-16T14:36:39.568Z,0.60
2023-03-16T14:39:12.986Z,1.00
2023-03-16T14:41:41.577Z,0.60
2023-03-16T14:44:21.150Z,0.80
2023-03-16T14:46:49.992Z,0.90
2023-03-16T14:49:23.673Z,1.10
2023-03-16T14:51:55.083Z,0.60
2023-03-16T14:54:23.880Z,0.70
2023-03-16T14:56:53.608Z,0.80
2023-03-16T14:59:22.606Z,0.73
2023-03-16T15:01:53.342Z,0.73
2023-03-16T15:04:28.146Z,0.60
2023-03-16T15:07:01.566Z,1.90
2023-03-16T15:09:35.408Z,0.70
2023-03-16T15:12:03.629Z,1.00
2023-03-16T15:14:49.566Z,2.50
2023-03-16T15:17:17.633Z,0.60
2023-03-16T15:19:45.800Z,0.70
2023-03-16T15:22:16.031Z,0.60
2023-03-16T15:24:44.091Z,0.90
2023-03-16T15:27:21.150Z,0.80
2023-03-16T15:29:49.270Z,1.57
2023-03-16T15:32:17.473Z,0.90
2023-03-16T15:34:46.685Z,1.40
2023-03-16T15:37:17.670Z,0.93
2023-03-16T15:39:46.762Z,1.87
2023-03-16T15:42:16.768Z,4.83
2023-03-16T15:44:45.209Z,4.00
2023-03-16T15:47:14.683Z,5.67
2023-03-16T15:49:47.699Z,1.80
2023-03-16T15:52:27.451Z,3.43
2023-03-16T15:54:57.379Z,2.40
2023-03-16T15:57:25.550Z,2.33
2023-03-16T15:59:53.778Z,1.53
2023-03-16T16:02:29.560Z,3.03
2023-03-16T16:04:58.226Z,1.47
2023-03-16T16:07:28.243Z,2.30
2023-03-16T16:09:56.301Z,3.60
2023-03-16T16:12:33.554Z,1.70
2023-03-16T16:15:01.773Z,2.40
2023-03-16T16:17:48.076Z,1.43
2023-03-16T16:20:24.543Z,1.80
2023-03-16T16:22:55.105Z,1.37
2023-03-16T16:25:25.057Z,1.60
2023-03-16T16:27:53.198Z,1.90
2023-03-16T16:30:26.551Z,2.03
2023-03-16T16:32:58.716Z,1.05
2023-03-16T16:35:29.425Z,1.30
2023-03-16T16:37:58.989Z,1.87
2023-03-16T16:40:37.044Z,1.90
2023-03-16T16:43:07.194Z,1.23
2023-03-16T16:45:35.952Z,1.67
2023-03-16T16:48:14.408Z,1.70
2023-03-16T16:50:42.448Z,2.10
2023-03-16T16:53:20.731Z,1.70
2023-03-16T16:55:48.997Z,1.85
2023-03-16T16:58:24.297Z,2.10
2023-03-16T17:00:56.191Z,2.33
2023-03-16T17:03:27.378Z,2.83
2023-03-16T17:05:57.889Z,1.97
2023-03-16T17:08:28.538Z,2.53
2023-03-16T17:10:57.234Z,2.80
2023-03-16T17:13:29.722Z,2.40
2023-03-16T17:15:58.824Z,4.45
2023-03-16T17:18:27.145Z,3.53
2023-03-16T17:20:57.143Z,6.43
2023-03-16T17:23:29.265Z,11.00
2023-03-16T17:25:59.616Z,4.75
2023-03-16T17:28:30.741Z,3.55
2023-03-16T17:30:58.932Z,3.00
2023-03-16T17:33:29.246Z,3.20
2023-03-16T17:35:57.417Z,2.35
2023-03-16T17:38:27.989Z,3.80
2023-03-16T17:40:56.997Z,4.50
2023-03-16T17:43:25.395Z,4.22
2023-03-16T17:45:53.874Z,3.97
2023-03-16T17:48:24.194Z,6.15
2023-03-16T17:50:52.601Z,6.18
2023-03-16T17:53:21.924Z,6.88
2023-03-16T17:55:51.348Z,4.88
2023-03-16T17:58:31.533Z,5.38
2023-03-16T18:01:00.023Z,4.00
2023-03-16T18:03:30.656Z,2.95
2023-03-16T18:05:59.396Z,4.75
2023-03-16T18:08:30.106Z,2.33
2023-03-16T18:11:01.685Z,2.42
2023-03-16T18:13:32.493Z,2.38
2023-03-16T18:16:01.319Z,2.22
2023-03-16T18:18:32.790Z,1.70
2023-03-16T18:21:00.835Z,2.33
2023-03-16T18:23:31.803Z,2.35
2023-03-16T18:26:03.777Z,2.10
2023-03-16T18:28:32.476Z,2.08
2023-03-16T18:31:02.313Z,1.30
2023-03-16T18:33:32.721Z,2.20
2023-03-16T18:36:02.906Z,2.40
2023-03-16T18:38:32.814Z,1.98
2023-03-16T18:41:04.631Z,1.73
2023-03-16T18:43:32.718Z,2.20
2023-03-16T18:46:00.796Z,1.60
2023-03-16T18:48:31.664Z,1.58
2023-03-16T18:51:00.086Z,2.20
2023-03-16T18:53:29.727Z,2.20
2023-03-16T18:55:57.863Z,1.85
2023-03-16T18:58:27.805Z,2.25
2023-03-16T19:00:57.576Z,1.65
2023-03-16T19:03:28.175Z,2.25
2023-03-16T19:05:58.513Z,2.75
2023-03-16T19:08:28.570Z,2.20
2023-03-16T19:10:58.995Z,1.88
2023-03-16T19:13:28.686Z,1.55
2023-03-16T19:15:57.981Z,2.22
2023-03-16T19:21:35.319Z,1.75
2023-03-16T19:24:10.592Z,2.15
2023-03-16T19:26:53.566Z,2.10
2023-03-16T19:29:54.547Z,2.05
2023-03-16T19:32:41.838Z,2.20
2023-03-16T19:35:44.328Z,1.50
2023-03-16T19:38:38.429Z,2.28
2023-03-16T19:41:08.742Z,1.40
2023-03-16T19:43:41.557Z,1.70
2023-03-16T19:46:15.819Z,1.45
2023-03-16T19:49:02.958Z,2.25
2023-03-16T19:54:47.844Z,1.30
2023-03-16T19:57:37.143Z,1.75
2023-03-16T20:00:27.165Z,1.83
2023-03-16T20:02:58.905Z,2.45
2023-03-16T20:05:34.283Z,4.80
2023-03-16T20:08:29.672Z,3.42
2023-03-16T20:11:11.942Z,2.28
2023-03-16T20:13:45.455Z,3.60
2023-03-16T20:16:27.419Z,2.40
2023-03-16T20:19:08.246Z,2.20
2023-03-16T20:21:36.706Z,3.40
2023-03-16T20:24:07.877Z,3.10
2023-03-16T20:26:44.755Z,2.53
2023-03-16T20:29:21.189Z,2.08
2023-03-16T20:32:29.273Z,2.92
